Hua Hin, Thailand
Current Conditions -  °F | °C
As of 10:30 AM on Saturday 20 Dec 2014 (Local Time) from VTBU Reporting Station
Haze Haze  
Wind Chill: 82°   Ceiling: Unl
Heat Index: 82°   Visibility: 3mi
Dew Point: 59°   Wind: 7mph
Humidity: 45%   Direction: 360°N
Pressure: 29.94"   Gusts: NA
Location:  12.57°N, 99.95°E
Report Text: VTBU 200330Z 36006KT 5000 HZ NSC 28/15 Q1014 A2996
Loading
Personal Weather Stations






























Interactive Weather Map New forecast layout! Learn more

10-Day Weather Forecast

Advertisements
Track Severe Weather on mobile